createdAt,value
2019-06-10T00:01:47.241Z,82.60
2019-06-10T00:04:13.317Z,82.80
2019-06-10T00:06:41.525Z,83.40
2019-06-10T00:09:08.126Z,83.50
2019-06-10T00:11:34.412Z,83.50
2019-06-10T00:14:02.467Z,84.50
2019-06-10T00:16:30.820Z,84.90
2019-06-10T00:18:56.444Z,85.60
2019-06-10T00:21:22.513Z,85.40
2019-06-10T00:23:48.564Z,85.40
2019-06-10T00:26:14.627Z,85.50
2019-06-10T00:28:40.777Z,85.60
2019-06-10T00:31:06.959Z,85.90
2019-06-10T00:33:33.339Z,86.30
2019-06-10T00:36:01.710Z,86.40
2019-06-10T00:38:27.368Z,86.80
2019-06-10T00:40:53.428Z,87.30
2019-06-10T00:43:21.419Z,87.50
2019-06-10T00:45:47.460Z,87.70
2019-06-10T00:48:24.285Z,87.90
2019-06-10T00:50:41.888Z,87.80
2019-06-10T00:53:09.923Z,88.00
2019-06-10T00:55:36.225Z,88.40
2019-06-10T00:58:02.936Z,88.30
2019-06-10T01:00:31.777Z,88.60
2019-06-10T01:02:58.009Z,88.70
2019-06-10T01:05:24.079Z,88.90
2019-06-10T01:07:50.852Z,89.10
2019-06-10T01:10:17.291Z,89.60
2019-06-10T01:12:43.360Z,89.70
2019-06-10T01:15:12.100Z,90.00
2019-06-10T01:17:37.591Z,90.10
2019-06-10T01:20:05.732Z,90.20
2019-06-10T01:22:32.033Z,90.30
2019-06-10T01:24:58.123Z,90.30
2019-06-10T01:27:24.205Z,90.30
2019-06-10T01:29:51.091Z,90.50
2019-06-10T01:32:17.688Z,90.60
2019-06-10T01:34:43.916Z,90.60
2019-06-10T01:37:11.754Z,90.90
2019-06-10T01:39:37.977Z,90.80
2019-06-10T01:42:04.040Z,90.80
2019-06-10T01:44:31.053Z,91.40
2019-06-10T01:46:57.381Z,91.00
2019-06-10T01:49:23.440Z,91.00
2019-06-10T01:51:51.637Z,91.00
2019-06-10T01:54:18.440Z,91.20
2019-06-10T01:56:44.735Z,91.90
2019-06-10T01:59:12.525Z,91.60
2019-06-10T02:01:57.352Z,92.10
2019-06-10T02:04:23.403Z,92.00
2019-06-10T02:06:51.130Z,92.60
2019-06-10T02:09:18.782Z,92.60
2019-06-10T02:11:45.395Z,92.70
2019-06-10T02:14:14.427Z,92.70
2019-06-10T02:16:41.434Z,92.70
2019-06-10T02:19:07.491Z,93.10
2019-06-10T02:21:33.551Z,93.00
2019-06-10T02:24:01.017Z,92.70
2019-06-10T02:26:27.296Z,93.40
2019-06-10T02:28:53.343Z,94.00
2019-06-10T02:31:29.065Z,95.80
2019-06-10T02:33:47.400Z,94.60
2019-06-10T02:36:17.319Z,92.90
2019-06-10T02:38:44.235Z,93.40
2019-06-10T02:41:09.398Z,93.00
2019-06-10T02:43:37.867Z,92.80
2019-06-10T02:46:04.949Z,92.80
2019-06-10T02:48:34.809Z,99.20
2019-06-10T02:51:03.897Z,92.90
2019-06-10T02:53:32.161Z,93.00
2019-06-10T02:55:57.710Z,93.10
2019-06-10T02:58:30.424Z,93.20
2019-06-10T03:00:54.652Z,93.30
2019-06-10T03:03:31.647Z,93.80
2019-06-10T03:05:47.677Z,93.50
2019-06-10T03:08:13.732Z,93.40
2019-06-10T03:10:39.806Z,93.50
2019-06-10T03:13:05.864Z,93.40
2019-06-10T03:15:33.826Z,93.30
2019-06-10T03:18:02.298Z,93.20
2019-06-10T03:20:28.421Z,94.90
2019-06-10T03:22:54.629Z,94.60
2019-06-10T03:25:22.998Z,93.30
2019-06-10T03:27:48.668Z,93.30
2019-06-10T03:30:20.873Z,93.60
2019-06-10T03:32:46.944Z,93.70
2019-06-10T03:35:13.249Z,94.90
2019-06-10T03:37:39.586Z,94.70
2019-06-10T03:40:06.249Z,95.10
2019-06-10T03:42:32.544Z,95.30
2019-06-10T03:44:58.788Z,95.00
2019-06-10T03:47:27.152Z,94.80
2019-06-10T03:49:56.006Z,95.00
2019-06-10T03:52:23.536Z,94.80
2019-06-10T03:54:48.847Z,95.00
2019-06-10T03:57:14.916Z,95.10
2019-06-10T03:59:42.189Z,95.00
2019-06-10T04:02:08.352Z,95.00
2019-06-10T04:04:34.432Z,94.80
2019-06-10T04:07:03.575Z,94.80
2019-06-10T04:09:28.869Z,94.80
2019-06-10T04:11:55.120Z,94.80
2019-06-10T04:14:22.412Z,94.70
2019-06-10T04:16:49.150Z,94.90
2019-06-10T04:19:15.220Z,95.40
2019-06-10T04:21:43.287Z,95.40
2019-06-10T04:24:09.249Z,95.30
2019-06-10T04:26:35.300Z,95.60
2019-06-10T04:29:02.484Z,95.50
2019-06-10T04:31:29.763Z,95.00
2019-06-10T04:33:56.003Z,94.70
2019-06-10T04:36:24.500Z,95.00
2019-06-10T04:38:52.351Z,94.80
2019-06-10T04:41:18.341Z,94.90
2019-06-10T04:43:44.596Z,95.00
2019-06-10T04:46:12.589Z,95.60
2019-06-10T04:48:38.632Z,95.60
2019-06-10T04:51:04.697Z,95.60
2019-06-10T04:53:32.997Z,95.70
2019-06-10T04:55:58.725Z,96.10
2019-06-10T04:58:27.577Z,95.90
2019-06-10T05:00:52.744Z,95.80
2019-06-10T05:03:18.951Z,96.10
2019-06-10T05:05:45.184Z,96.60
2019-06-10T05:08:13.167Z,96.70
2019-06-10T05:10:39.260Z,96.50
2019-06-10T05:13:05.333Z,96.50
2019-06-10T05:15:34.634Z,96.40
2019-06-10T05:17:59.377Z,96.70
2019-06-10T05:20:43.673Z,96.60
2019-06-10T05:22:53.406Z,96.80
2019-06-10T05:25:20.370Z,96.90
2019-06-10T05:27:47.543Z,97.00
2019-06-10T05:30:14.020Z,96.80
2019-06-10T05:32:40.073Z,96.70
2019-06-10T05:35:06.248Z,96.60
2019-06-10T05:37:33.855Z,96.70
2019-06-10T05:40:02.184Z,96.90
2019-06-10T05:42:29.309Z,97.20
2019-06-10T05:44:56.271Z,97.20
2019-06-10T05:47:25.049Z,97.10
2019-06-10T05:49:52.799Z,97.10
2019-06-10T05:52:18.344Z,97.00
2019-06-10T05:54:44.412Z,97.00
2019-06-10T05:57:12.083Z,97.10
2019-06-10T05:59:38.348Z,97.30
2019-06-10T06:02:04.423Z,97.10
2019-06-10T06:04:32.574Z,97.20
2019-06-10T06:06:58.446Z,97.20
2019-06-10T06:09:25.145Z,97.20
2019-06-10T06:11:52.399Z,97.10
2019-06-10T06:14:18.608Z,97.00
2019-06-10T06:16:44.681Z,97.00
2019-06-10T06:19:12.601Z,96.90
2019-06-10T06:21:42.684Z,96.40
2019-06-10T06:24:06.823Z,96.40
2019-06-10T06:26:37.421Z,96.40
2019-06-10T06:29:02.236Z,96.50
2019-06-10T06:31:28.480Z,96.50
2019-06-10T06:33:54.542Z,96.50
2019-06-10T06:36:22.657Z,96.80
2019-06-10T06:38:48.573Z,96.80
2019-06-10T06:41:14.637Z,96.90
2019-06-10T06:43:44.857Z,96.90
2019-06-10T06:46:08.664Z,99.20
2019-06-10T06:48:38.506Z,99.40
2019-06-10T06:51:08.190Z,99.50
2019-06-10T06:53:42.103Z,97.90
2019-06-10T06:55:58.725Z,98.90
2019-06-10T06:58:24.784Z,99.90
2019-06-10T07:01:01.871Z,99.90
2019-06-10T07:03:18.840Z,99.20
2019-06-10T07:05:45.245Z,99.40
2019-06-10T07:08:13.163Z,99.30
2019-06-10T07:10:41.412Z,98.70
2019-06-10T07:13:07.747Z,98.70
2019-06-10T07:15:41.100Z,98.70
2019-06-10T07:18:08.436Z,98.40
2019-06-10T07:20:37.607Z,98.60
2019-06-10T07:23:02.803Z,98.60
2019-06-10T07:25:28.932Z,98.70
2019-06-10T07:27:54.989Z,98.70
2019-06-10T07:30:23.037Z,98.00
2019-06-10T07:32:49.020Z,97.60
2019-06-10T07:35:15.099Z,98.00
2019-06-10T07:37:43.950Z,98.20
2019-06-10T07:40:09.220Z,98.10
2019-06-10T07:42:36.331Z,98.00
2019-06-10T07:45:05.351Z,98.40
2019-06-10T07:47:32.671Z,98.20
2019-06-10T07:49:59.422Z,98.10
2019-06-10T07:52:25.477Z,98.40
2019-06-10T07:54:52.910Z,98.40
2019-06-10T07:57:19.291Z,98.30
2019-06-10T07:59:46.071Z,97.80
2019-06-10T08:02:12.487Z,97.60
2019-06-10T08:04:39.770Z,97.20
2019-06-10T08:07:06.633Z,96.90
2019-06-10T08:09:35.577Z,96.90
2019-06-10T08:12:03.481Z,96.50
2019-06-10T08:14:28.629Z,96.60
2019-06-10T08:16:54.679Z,96.90
2019-06-10T08:19:33.821Z,96.60
2019-06-10T08:21:49.646Z,96.70
2019-06-10T08:24:15.950Z,96.60
2019-06-10T08:26:43.670Z,96.50
2019-06-10T08:29:12.560Z,96.90
2019-06-10T08:31:38.818Z,96.30
2019-06-10T08:34:05.117Z,96.30
2019-06-10T08:36:33.289Z,96.70
2019-06-10T08:38:59.142Z,96.50
2019-06-10T08:41:25.212Z,96.10
2019-06-10T08:43:52.877Z,96.20
2019-06-10T08:46:19.229Z,96.80
2019-06-10T08:48:47.698Z,96.40
2019-06-10T08:51:13.256Z,96.70
2019-06-10T09:05:57.685Z,93.80
2019-06-10T09:08:23.928Z,93.30
2019-06-10T09:10:54.191Z,93.60
2019-06-10T09:13:17.984Z,93.90
2019-06-10T09:15:50.844Z,93.80
2019-06-10T09:18:14.510Z,93.80
2019-06-10T09:20:41.466Z,93.70
2019-06-10T09:23:21.012Z,93.70
2019-06-10T09:25:35.957Z,93.20
2019-06-10T09:28:02.490Z,92.90
2019-06-10T09:30:28.989Z,92.80
2019-06-10T09:32:56.497Z,92.60
2019-06-10T09:35:24.087Z,92.50
2019-06-10T09:37:53.167Z,92.10
2019-06-10T09:40:19.367Z,90.80
2019-06-10T09:42:48.117Z,91.10
2019-06-10T09:45:14.407Z,91.00
2019-06-10T09:47:46.746Z,90.80
2019-06-10T09:50:12.333Z,90.40
2019-06-10T09:52:38.492Z,90.60
2019-06-10T09:55:05.663Z,90.10
2019-06-10T09:57:32.160Z,90.20
2019-06-10T09:59:58.496Z,89.50
2019-06-10T10:02:24.657Z,90.00
2019-06-10T10:04:53.892Z,88.90
2019-06-10T10:07:19.276Z,88.20
2019-06-10T10:09:49.809Z,88.30
2019-06-10T10:12:13.537Z,87.70
2019-06-10T10:14:39.593Z,86.60
2019-06-10T10:17:05.674Z,86.60
2019-06-10T10:19:32.491Z,85.50
2019-06-10T10:21:58.734Z,87.10
2019-06-10T10:24:24.942Z,86.00
2019-06-10T10:26:55.934Z,85.50
2019-06-10T10:31:48.982Z,85.20
2019-06-10T10:39:08.072Z,82.90
2019-06-10T10:41:34.728Z,83.90
2019-06-10T10:44:02.914Z,83.60
2019-06-10T10:46:28.760Z,82.20
2019-06-10T10:48:56.481Z,82.60
2019-06-10T10:51:23.184Z,82.60
2019-06-10T10:54:16.943Z,81.20
2019-06-10T11:47:55.476Z,67.20
2019-06-10T11:50:23.258Z,68.10
2019-06-10T11:52:50.205Z,67.30
2019-06-10T11:55:19.239Z,66.70
2019-06-10T11:57:45.567Z,65.60
2019-06-10T12:00:16.643Z,65.40
2019-06-10T12:02:42.353Z,64.10
2019-06-10T12:05:09.548Z,62.40
2019-06-10T12:07:35.609Z,63.10
2019-06-10T12:10:08.161Z,62.60
2019-06-10T12:12:34.222Z,62.30
2019-06-10T12:15:01.471Z,57.80
2019-06-10T12:17:41.768Z,59.50
2019-06-10T12:19:59.586Z,60.40
2019-06-10T12:22:23.693Z,60.60
2019-06-10T12:24:50.320Z,59.50
2019-06-10T12:27:16.605Z,59.30
2019-06-10T12:29:42.682Z,58.20
2019-06-10T12:32:08.736Z,57.40
2019-06-10T12:34:34.814Z,57.50
2019-06-10T12:37:10.020Z,57.30
2019-06-10T12:39:28.846Z,56.90
2019-06-10T12:41:57.893Z,54.90
2019-06-10T12:44:22.942Z,53.80
2019-06-10T12:46:49.044Z,54.20
2019-06-10T12:49:18.257Z,63.40
2019-06-10T12:51:43.109Z,65.50
2019-06-10T12:54:09.192Z,65.00
2019-06-10T12:56:35.240Z,66.20
2019-06-10T12:59:06.801Z,64.10
2019-06-10T13:01:29.454Z,64.80
2019-06-10T13:03:55.689Z,65.60
2019-06-10T13:06:23.565Z,71.00
2019-06-10T13:08:53.123Z,79.50
2019-06-10T13:11:19.454Z,76.00
2019-06-10T13:16:14.149Z,85.10
2019-06-10T13:18:39.915Z,57.10
2019-06-10T13:21:11.607Z,52.00
2019-06-10T13:23:36.093Z,54.40
2019-06-10T13:26:07.164Z,53.90
2019-06-10T13:28:32.267Z,54.50
2019-06-10T13:30:58.999Z,55.70
2019-06-10T13:33:25.243Z,55.90
2019-06-10T13:35:53.529Z,52.20
2019-06-10T13:38:19.376Z,47.80
2019-06-10T13:40:45.442Z,46.70
2019-06-10T13:43:12.344Z,46.40
2019-06-10T13:45:39.266Z,46.50
2019-06-10T13:48:08.335Z,46.60
2019-06-10T13:50:33.383Z,46.80
2019-06-10T13:53:00.589Z,46.30
2019-06-10T13:55:27.618Z,46.60
2019-06-10T13:57:53.844Z,45.40
2019-06-10T14:00:22.876Z,44.90
2019-06-10T14:02:52.124Z,45.00
2019-06-10T14:05:18.465Z,43.90
2019-06-10T14:07:44.885Z,43.70
2019-06-10T14:10:17.781Z,44.50
2019-06-10T14:12:40.312Z,45.20
2019-06-10T14:15:09.180Z,46.10
2019-06-10T14:17:34.640Z,46.20
2019-06-10T14:20:01.746Z,46.60
2019-06-10T14:22:28.029Z,47.20
2019-06-10T14:24:54.098Z,47.00
2019-06-10T14:27:21.647Z,47.80
2019-06-10T14:29:48.224Z,47.40
2019-06-10T14:32:15.763Z,47.30
2019-06-10T14:34:42.145Z,47.90
2019-06-10T14:37:08.340Z,48.40
2019-06-10T14:39:34.388Z,48.30
2019-06-10T14:42:00.465Z,48.20
2019-06-10T14:44:26.530Z,48.80
2019-06-10T14:46:53.015Z,48.90
2019-06-10T14:49:19.247Z,49.50
2019-06-10T14:51:45.312Z,49.30
2019-06-10T14:54:12.128Z,49.30
2019-06-10T14:56:50.568Z,49.30
2019-06-10T14:59:07.544Z,49.50
2019-06-10T15:01:33.765Z,49.60
2019-06-10T15:03:59.825Z,50.10
2019-06-10T15:06:25.892Z,50.20
2019-06-10T15:08:53.334Z,49.50
2019-06-10T15:11:20.100Z,49.40
2019-06-10T15:13:46.981Z,49.40
2019-06-10T15:16:14.254Z,49.20
2019-06-10T15:18:40.428Z,49.20
2019-06-10T15:21:06.492Z,51.10
2019-06-10T15:23:32.696Z,51.80
2019-06-10T15:25:58.851Z,51.80
2019-06-10T15:28:25.013Z,51.60
2019-06-10T15:30:52.429Z,51.90
2019-06-10T15:33:19.721Z,52.80
2019-06-10T15:35:45.929Z,52.60
2019-06-10T15:38:14.869Z,51.70
2019-06-10T15:40:39.957Z,51.50
2019-06-10T15:43:06.423Z,51.50
2019-06-10T15:45:32.755Z,51.50
2019-06-10T15:47:58.814Z,52.00
2019-06-10T15:50:27.487Z,51.70
2019-06-10T15:52:52.884Z,52.30
2019-06-10T15:55:42.460Z,52.40
2019-06-10T15:57:46.915Z,52.70
2019-06-10T16:00:17.696Z,52.90
2019-06-10T16:02:41.680Z,53.80
2019-06-10T16:05:08.164Z,54.50
2019-06-10T16:07:34.248Z,54.40
2019-06-10T16:10:02.714Z,55.10
2019-06-10T16:12:28.268Z,54.80
2019-06-10T16:14:54.329Z,56.60
2019-06-10T16:17:21.125Z,56.00
2019-06-10T16:19:47.261Z,55.90
2019-06-10T16:22:14.202Z,56.20
2019-06-10T16:24:42.316Z,56.40
2019-06-10T16:27:08.548Z,56.50
2019-06-10T16:29:34.628Z,56.80
2019-06-10T16:32:02.525Z,57.50
2019-06-10T16:34:29.845Z,58.50
2019-06-10T16:36:56.314Z,58.30
2019-06-10T16:39:24.177Z,58.30
2019-06-10T16:41:52.286Z,58.70
2019-06-10T16:44:19.966Z,58.40
2019-06-10T16:46:46.820Z,58.80
2019-06-10T16:49:13.024Z,58.90
2019-06-10T16:51:39.191Z,58.70
2019-06-10T16:54:05.325Z,59.10
2019-06-10T16:56:33.611Z,59.20
2019-06-10T16:58:59.367Z,59.20
2019-06-10T17:01:27.313Z,59.50
2019-06-10T17:03:53.459Z,59.80
2019-06-10T17:06:22.020Z,60.70
2019-06-10T17:08:47.493Z,61.10
2019-06-10T17:11:13.547Z,61.30
2019-06-10T17:13:42.065Z,62.00
2019-06-10T17:16:07.671Z,62.40
2019-06-10T17:18:33.941Z,63.20
2019-06-10T17:21:02.659Z,64.10
2019-06-10T17:23:33.347Z,65.40
2019-06-10T17:25:56.638Z,66.10
2019-06-10T17:28:28.326Z,67.10
2019-06-10T17:30:53.058Z,68.00
2019-06-10T17:35:47.669Z,68.10
2019-06-10T17:38:13.739Z,69.20
2019-06-10T17:40:39.908Z,69.80
2019-06-10T17:43:06.072Z,70.50
2019-06-10T17:45:32.260Z,71.40
2019-06-10T17:47:58.400Z,71.20
2019-06-10T17:50:25.286Z,71.30
2019-06-10T17:52:53.386Z,71.00
2019-06-10T17:55:19.805Z,71.70
2019-06-10T17:57:47.533Z,72.30
2019-06-10T18:00:14.911Z,73.50
2019-06-10T18:02:42.629Z,74.30
2019-06-10T18:05:09.336Z,75.00
2019-06-10T18:07:35.815Z,75.60
2019-06-10T18:10:04.580Z,75.80
2019-06-10T18:12:32.965Z,75.70
2019-06-10T18:14:58.697Z,74.90
2019-06-10T18:17:25.922Z,74.30
2019-06-10T18:19:53.276Z,73.70
2019-06-10T18:22:19.625Z,72.40
2019-06-10T18:24:45.759Z,71.90
2019-06-10T18:27:12.782Z,73.30
2019-06-10T18:29:39.088Z,74.00
2019-06-10T18:32:05.284Z,76.40
2019-06-10T18:34:34.574Z,79.10
2019-06-10T18:36:59.357Z,80.90
2019-06-10T18:39:25.419Z,82.60
2019-06-10T18:41:52.882Z,82.90
2019-06-10T18:44:23.263Z,83.70
2019-06-10T18:46:47.700Z,85.70
2019-06-10T18:49:13.824Z,88.60
2019-06-10T18:51:39.949Z,89.80
2019-06-10T18:54:06.044Z,90.10
2019-06-10T18:56:34.301Z,90.20
2019-06-10T18:59:13.483Z,90.30
2019-06-10T19:01:28.288Z,90.30
2019-06-10T19:03:54.399Z,90.20
2019-06-10T19:06:22.792Z,90.10
2019-06-10T19:08:48.451Z,90.00
2019-06-10T19:11:14.497Z,90.20
2019-06-10T19:13:43.328Z,90.00
2019-06-10T19:16:08.536Z,90.70
2019-06-10T19:18:36.000Z,90.60
2019-06-10T19:21:04.177Z,90.60
2019-06-10T19:23:30.334Z,90.80
2019-06-10T19:25:56.412Z,90.80
2019-06-10T19:28:23.015Z,91.30
2019-06-10T19:30:49.321Z,91.70
2019-06-10T19:33:15.384Z,91.80
2019-06-10T19:35:43.625Z,91.90
2019-06-10T19:38:09.447Z,91.90
2019-06-10T19:40:36.865Z,92.10
2019-06-10T19:43:03.486Z,92.70
2019-06-10T19:45:31.948Z,93.00
2019-06-10T19:47:57.620Z,93.00
2019-06-10T19:50:23.685Z,93.40
2019-06-10T19:52:51.639Z,93.60
2019-06-10T19:55:17.821Z,93.90
2019-06-10T19:57:43.975Z,94.00
2019-06-10T20:00:12.670Z,94.10
2019-06-10T20:02:39.848Z,94.10
2019-06-10T20:05:06.824Z,94.60
2019-06-10T20:07:33.982Z,94.60
2019-06-10T20:10:02.684Z,94.80
2019-06-10T20:12:28.124Z,95.10
2019-06-10T20:14:56.840Z,94.70
2019-06-10T20:17:22.774Z,95.10
2019-06-10T20:19:49.007Z,95.10
2019-06-10T20:22:15.085Z,95.10
2019-06-10T20:24:43.712Z,95.00
2019-06-10T20:27:09.092Z,94.80
2019-06-10T20:29:35.764Z,95.00
2019-06-10T20:32:02.440Z,95.00
2019-06-10T20:34:28.596Z,95.10
2019-06-10T20:36:54.674Z,95.20
2019-06-10T20:39:24.459Z,95.10
2019-06-10T20:41:52.289Z,95.20
2019-06-10T20:44:16.675Z,95.20
2019-06-10T20:46:43.483Z,95.50
2019-06-10T20:49:13.376Z,95.60
2019-06-10T20:51:50.262Z,95.60
2019-06-10T20:54:06.675Z,95.50
2019-06-10T20:56:33.666Z,95.70
2019-06-10T20:59:00.028Z,95.50
2019-06-10T21:01:26.181Z,95.60
2019-06-10T21:03:54.232Z,95.70
2019-06-10T21:06:22.518Z,95.70
2019-06-10T21:08:51.966Z,96.20
2019-06-10T21:11:18.128Z,96.30
2019-06-10T21:13:47.749Z,96.40
2019-06-10T21:16:12.599Z,96.40
2019-06-10T21:18:40.204Z,96.70
2019-06-10T21:21:06.495Z,96.90
2019-06-10T21:23:32.562Z,96.90
2019-06-10T21:25:58.608Z,96.70
2019-06-10T21:28:24.665Z,96.60
2019-06-10T21:43:08.608Z,99.90
2019-06-10T21:48:02.188Z,99.90
2019-06-10T21:50:28.777Z,99.00
2019-06-10T21:52:54.827Z,98.30
2019-06-10T21:55:22.462Z,97.50
2019-06-10T22:00:17.682Z,97.10
2019-06-10T22:02:45.146Z,97.40
2019-06-10T22:05:12.417Z,97.40
2019-06-10T22:07:38.564Z,97.50
2019-06-10T22:10:06.641Z,97.80
2019-06-10T22:12:32.691Z,97.60
2019-06-10T22:14:58.761Z,97.50
2019-06-10T22:17:24.825Z,97.60
2019-06-10T22:19:53.184Z,97.50
2019-06-10T22:22:18.846Z,97.50
2019-06-10T22:24:44.911Z,97.50
2019-06-10T22:27:12.881Z,97.50
2019-06-10T22:29:38.952Z,97.50
2019-06-10T22:32:05.002Z,97.60
2019-06-10T22:34:32.886Z,98.00
2019-06-10T22:36:59.123Z,97.60
2019-06-10T22:39:25.190Z,97.60
2019-06-10T22:41:53.687Z,97.50
2019-06-10T22:44:19.224Z,97.70
2019-06-10T22:46:45.284Z,97.90
2019-06-10T22:49:13.523Z,97.90
2019-06-10T22:51:39.303Z,98.10
2019-06-10T22:54:05.377Z,98.10
2019-06-10T22:56:31.428Z,98.10
2019-06-10T22:58:57.503Z,98.30
2019-06-10T23:01:33.876Z,98.40
2019-06-10T23:03:52.147Z,98.40
2019-06-10T23:06:18.372Z,98.40
2019-06-10T23:08:44.444Z,98.40
2019-06-10T23:11:12.934Z,98.40
2019-06-10T23:13:38.530Z,98.50
2019-06-10T23:16:04.703Z,98.50
2019-06-10T23:18:32.041Z,98.60
2019-06-10T23:20:59.664Z,98.90
2019-06-10T23:23:26.271Z,98.80
2019-06-10T23:25:53.677Z,98.80
2019-06-10T23:28:22.067Z,98.80
2019-06-10T23:30:47.987Z,99.00
2019-06-10T23:33:14.044Z,99.10
2019-06-10T23:35:42.674Z,99.20
2019-06-10T23:38:08.080Z,99.30
2019-06-10T23:40:34.154Z,99.40
2019-06-10T23:43:01.680Z,99.60
2019-06-10T23:45:28.196Z,99.50
2019-06-10T23:47:56.141Z,99.40
2019-06-10T23:50:22.627Z,99.60
2019-06-10T23:52:48.897Z,99.40
2019-06-10T23:55:15.063Z,99.30
2019-06-10T23:57:42.140Z,99.60
